1886 Hurricane NOT_NAMED (1886280N35291)


IBTrACS version v04r00. Visit IBTrACS website for data access.
Please direct all questions to the IBTrACS Q and A forum

Storm track - Intensity - Wind Radii - Intensity Data - Source Data - All data

Summary Information

Storm ID 1886280N35291
Start Oct 6 12Z
Max Intensity 65 kt (Oct 11 12Z)
End Oct 16 00Z
ATCF IDs
Track status Best track data.

Storm track plot

Map of storm track

Intensity plots

Map of storm track

Radial wind information

No radial wind information for this storm


Position and Intensity Table

BASIN ISO_TIME_________ NATURE LAT LON MLC WIND
degrees north degrees east kts
NA 1886-10-06 12:00:00 SS 34.50 -69.00 35
NA 15:00:00 SS 34.66 -68.91 35
NA 18:00:00 SS 34.80 -68.80 35
NA 21:00:00 SS 34.91 -68.65 37
NA 1886-10-07 00:00:00 SS 35.00 -68.50 40
NA 03:00:00 SS 35.09 -68.40 40
NA 06:00:00 SS 35.20 -68.30 40
NA 09:00:00 SS 35.36 -68.23 40
NA 12:00:00 TS 35.50 -68.00 40
NA 15:00:00 TS 35.52 -67.47 40
NA 18:00:00 TS 35.50 -66.80 40
NA 21:00:00 TS 35.50 -66.20 40
NA 1886-10-08 00:00:00 TS 35.50 -65.60 40
NA 03:00:00 TS 35.50 -64.98 42
NA 06:00:00 TS 35.50 -64.40 45
NA 09:00:00 TS 35.54 -63.87 45
NA 12:00:00 TS 35.50 -63.50 45
NA 15:00:00 TS 35.29 -63.39 45
NA 18:00:00 TS 35.00 -63.40 45
NA 21:00:00 TS 34.75 -63.35 45
NA 1886-10-09 00:00:00 TS 34.50 -63.30 45
NA 03:00:00 TS 34.25 -63.26 47
NA 06:00:00 TS 34.00 -63.20 50
NA 09:00:00 TS 33.78 -63.12 50
NA 12:00:00 TS 33.50 -63.00 50
NA 15:00:00 TS 33.08 -62.85 50
NA 18:00:00 TS 32.60 -62.70 50
NA 21:00:00 TS 32.15 -62.59 50
NA 1886-10-10 00:00:00 TS 31.70 -62.50 50
NA 03:00:00 TS 31.24 -62.41 52
NA 06:00:00 TS 30.80 -62.30 55
NA 09:00:00 TS 30.39 -62.11 55
NA 12:00:00 TS 30.00 -62.00 55
NA 15:00:00 TS 29.65 -62.11 57
NA 18:00:00 TS 29.30 -62.30 60
NA 21:00:00 TS 28.91 -62.40 60
NA 1886-10-11 00:00:00 TS 28.50 -62.50 60
NA 03:00:00 TS 28.09 -62.65 60
NA 06:00:00 TS 27.70 -62.80 60
NA 09:00:00 TS 27.33 -62.92 62
NA 12:00:00 TS 27.00 -63.00 65
NA 15:00:00 TS 26.73 -63.01 65
NA 18:00:00 TS 26.50 -63.00 65
NA 21:00:00 TS 26.25 -63.00 65
NA 1886-10-12 00:00:00 TS 26.00 -63.00 65
NA 03:00:00 TS 25.75 -63.00 65
NA 06:00:00 TS 25.50 -63.00 65
NA 09:00:00 TS 25.19 -63.02 65
NA 12:00:00 TS 25.00 -63.00 65
NA 15:00:00 TS 25.10 -62.87 65
NA 18:00:00 TS 25.30 -62.70 65
NA 21:00:00 TS 25.40 -62.59 65
NA 1886-10-13 00:00:00 TS 25.50 -62.50 65
NA 03:00:00 TS 25.65 -62.41 65
NA 06:00:00 TS 25.80 -62.30 65
NA 09:00:00 TS 25.81 -62.28 65
NA 12:00:00 TS 26.00 -62.00 65
NA 15:00:00 TS 26.65 -61.13 65
NA 18:00:00 TS 27.50 -60.00 65
NA 21:00:00 TS 28.25 -59.09 65
NA 1886-10-14 00:00:00 TS 29.00 -58.00 65
NA 03:00:00 TS 29.75 -56.44 65
NA 06:00:00 TS 30.50 -54.70 65
NA 09:00:00 TS 31.27 -53.00 65
NA 12:00:00 TS 32.00 -51.50 65
NA 15:00:00 TS 32.67 -50.45 60
NA 18:00:00 TS 33.30 -49.60 55
NA 21:00:00 TS 33.90 -48.65 52
NA 1886-10-15 00:00:00 TS 34.50 -47.70 50
NA 03:00:00 TS 35.15 -46.74 47
NA 06:00:00 TS 35.80 -45.80 45
NA 09:00:00 TS 36.41 -44.72 42
NA 12:00:00 ET 37.00 -44.00 40
NA 15:00:00 ET 37.60 -44.06 40
NA 18:00:00 ET 38.20 -44.50 40
NA 21:00:00 ET 38.80 -44.89 35
NA 1886-10-16 00:00:00 ET 39.40 -45.20 30

Source Information

Agency Information
USA
TOKYO
CMA
HKO
NEWDELHI
REUNION
BOM
NADI
WELLINGTON
DS824
TD9636
TD9635
NEUMANN
MLC

All available IBTrACS Data

SEASON BASIN SUBBASIN ISO_TIME_________ NATURE LAT LON DIST2LAND LANDFALL IFLAG USA SSHS MLC LAT MLC LON MLC CLASS MLC WIND STORM SPEED STORM DIR
Year degrees north degrees east km km 1 degrees north degrees east kts kts degrees
1886 NA NA 1886-10-06 12:00:00 SS 34.50 -69.00 607 604 _____________O -1 34.50 -69.00 SS 35 4 22
1886 NA NA 15:00:00 SS 34.66 -68.91 610 610 _____________P -1 34.66 -68.91 SS 35 3 28
1886 NA NA 18:00:00 SS 34.80 -68.80 616 616 _____________O -1 34.80 -68.80 SS 35 3 41
1886 NA NA 21:00:00 SS 34.91 -68.65 632 630 _____________P -1 34.91 -68.65 SS 37 3 51
1886 NA NA 1886-10-07 00:00:00 SS 35.00 -68.50 639 639 _____________O -1 35.00 -68.50 SS 40 3 48
1886 NA NA 03:00:00 SS 35.09 -68.40 646 646 _____________P -1 35.09 -68.40 SS 40 3 40
1886 NA NA 06:00:00 SS 35.20 -68.30 653 652 _____________O -1 35.20 -68.30 SS 40 3 27
1886 NA NA 09:00:00 SS 35.36 -68.23 659 659 _____________P -1 35.36 -68.23 SS 40 4 39
1886 NA NA 12:00:00 TS 35.50 -68.00 676 676 _____________O -1 35.50 -68.00 TS 40 6 76
1886 NA NA 15:00:00 TS 35.52 -67.47 721 721 _____________P -1 35.52 -67.47 TS 40 10 90
1886 NA NA 18:00:00 TS 35.50 -66.80 743 743 _____________O -1 35.50 -66.80 TS 40 10 91
1886 NA NA 21:00:00 TS 35.50 -66.20 764 764 _____________P -1 35.50 -66.20 TS 40 10 90
1886 NA NA 1886-10-08 00:00:00 TS 35.50 -65.60 788 788 _____________O -1 35.50 -65.60 TS 40 10 90
1886 NA NA 03:00:00 TS 35.50 -64.98 814 814 _____________P -1 35.50 -64.98 TS 42 10 90
1886 NA NA 06:00:00 TS 35.50 -64.40 843 843 _____________O -1 35.50 -64.40 TS 45 9 88
1886 NA NA 09:00:00 TS 35.54 -63.87 868 868 _____________P -1 35.54 -63.87 TS 45 7 90
1886 NA NA 12:00:00 TS 35.50 -63.50 890 890 _____________O -1 35.50 -63.50 TS 45 5 123
1886 NA NA 15:00:00 TS 35.29 -63.39 913 913 _____________P -1 35.29 -63.39 TS 45 5 171
1886 NA NA 18:00:00 TS 35.00 -63.40 940 940 _____________O -1 35.00 -63.40 TS 45 5 177
1886 NA NA 21:00:00 TS 34.75 -63.35 958 967 _____________P -1 34.75 -63.35 TS 45 5 171
1886 NA NA 1886-10-09 00:00:00 TS 34.50 -63.30 991 991 _____________O -1 34.50 -63.30 TS 45 5 171
1886 NA NA 03:00:00 TS 34.25 -63.26 1019 1019 _____________P -1 34.25 -63.26 TS 47 5 171
1886 NA NA 06:00:00 TS 34.00 -63.20 1043 1043 _____________O -1 34.00 -63.20 TS 50 5 166
1886 NA NA 09:00:00 TS 33.78 -63.12 1066 1066 _____________P -1 33.78 -63.12 TS 50 5 161
1886 NA NA 12:00:00 TS 33.50 -63.00 1100 1100 _____________O -1 33.50 -63.00 TS 50 7 163
1886 NA NA 15:00:00 TS 33.08 -62.85 1147 1147 _____________P -1 33.08 -62.85 TS 50 9 165
1886 NA NA 18:00:00 TS 32.60 -62.70 1200 1200 _____________O -1 32.60 -62.70 TS 50 10 167
1886 NA NA 21:00:00 TS 32.15 -62.59 1253 1253 _____________P -1 32.15 -62.59 TS 50 9 170
1886 NA NA 1886-10-10 00:00:00 TS 31.70 -62.50 1282 1282 _____________O -1 31.70 -62.50 TS 50 9 170
1886 NA NA 03:00:00 TS 31.24 -62.41 1314 1314 _____________P -1 31.24 -62.41 TS 52 9 169
1886 NA NA 06:00:00 TS 30.80 -62.30 1343 1343 _____________O -1 30.80 -62.30 TS 55 9 163
1886 NA NA 09:00:00 TS 30.39 -62.11 1381 1346 _____________P -1 30.39 -62.11 TS 55 8 162
1886 NA NA 12:00:00 TS 30.00 -62.00 1346 1311 _____________O -1 30.00 -62.00 TS 55 7 0
1886 NA NA 15:00:00 TS 29.65 -62.11 1311 1263 _____________P -1 29.65 -62.11 TS 57 7 200
1886 NA NA 18:00:00 TS 29.30 -62.30 1263 1217 _____________O -1 29.30 -62.30 TS 60 8 199
1886 NA NA 21:00:00 TS 28.91 -62.40 1217 1172 _____________P -1 28.91 -62.40 TS 60 8 193
1886 NA NA 1886-10-11 00:00:00 TS 28.50 -62.50 1172 1126 _____________O -1 28.50 -62.50 TS 60 8 195
1886 NA NA 03:00:00 TS 28.09 -62.65 1123 1078 _____________P -1 28.09 -62.65 TS 60 8 198
1886 NA NA 06:00:00 TS 27.70 -62.80 1078 1032 _____________O -1 27.70 -62.80 TS 60 8 197
1886 NA NA 09:00:00 TS 27.33 -62.92 1032 997 _____________P -1 27.33 -62.92 TS 62 7 194
1886 NA NA 12:00:00 TS 27.00 -63.00 997 965 _____________O -1 27.00 -63.00 HU 65 6 187
1886 NA NA 15:00:00 TS 26.73 -63.01 965 943 _____________P -1 26.73 -63.01 HU 65 5 178
1886 NA NA 18:00:00 TS 26.50 -63.00 943 922 _____________O -1 26.50 -63.00 HU 65 5 0
1886 NA NA 21:00:00 TS 26.25 -63.00 922 890 _____________P -1 26.25 -63.00 HU 65 5 178
1886 NA NA 1886-10-12 00:00:00 TS 26.00 -63.00 890 869 _____________O -1 26.00 -63.00 HU 65 5 178
1886 NA NA 03:00:00 TS 25.75 -63.00 869 837 _____________P -1 25.75 -63.00 HU 65 5 178
1886 NA NA 06:00:00 TS 25.50 -63.00 837 806 _____________O -1 25.50 -63.00 HU 65 6 0
1886 NA NA 09:00:00 TS 25.19 -63.02 806 785 _____________P -1 25.19 -63.02 HU 65 5 178
1886 NA NA 12:00:00 TS 25.00 -63.00 785 785 _____________O -1 25.00 -63.00 HU 65 2 123
1886 NA NA 15:00:00 TS 25.10 -62.87 799 799 _____________P -1 25.10 -62.87 HU 65 4 42
1886 NA NA 18:00:00 TS 25.30 -62.70 827 827 _____________O -1 25.30 -62.70 HU 65 4 39
1886 NA NA 21:00:00 TS 25.40 -62.59 841 841 _____________P -1 25.40 -62.59 HU 65 3 42
1886 NA NA 1886-10-13 00:00:00 TS 25.50 -62.50 855 855 _____________O -1 25.50 -62.50 HU 65 3 34
1886 NA NA 03:00:00 TS 25.65 -62.41 869 869 _____________P -1 25.65 -62.41 HU 65 4 31
1886 NA NA 06:00:00 TS 25.80 -62.30 894 894 _____________O -1 25.80 -62.30 HU 65 2 35
1886 NA NA 09:00:00 TS 25.81 -62.28 894 894 _____________P -1 25.81 -62.28 HU 65 3 54
1886 NA NA 12:00:00 TS 26.00 -62.00 926 926 _____________O -1 26.00 -62.00 HU 65 13 51
1886 NA NA 15:00:00 TS 26.65 -61.13 1036 1036 _____________P -1 26.65 -61.13 HU 65 23 50
1886 NA NA 18:00:00 TS 27.50 -60.00 1167 1167 _____________O -1 27.50 -60.00 HU 65 24 49
1886 NA NA 21:00:00 TS 28.25 -59.09 1279 1279 _____________P -1 28.25 -59.09 HU 65 23 50
1886 NA NA 1886-10-14 00:00:00 TS 29.00 -58.00 1413 1413 _____________O -1 29.00 -58.00 HU 65 28 57
1886 NA NA 03:00:00 TS 29.75 -56.44 1577 1577 _____________P -1 29.75 -56.44 HU 65 32 62
1886 NA NA 06:00:00 TS 30.50 -54.70 1722 1702 _____________O -1 30.50 -54.70 HU 65 33 63
1886 NA NA 09:00:00 TS 31.27 -53.00 1698 1630 _____________P -1 31.27 -53.00 HU 65 31 61
1886 NA NA 12:00:00 TS 32.00 -51.50 1631 1573 _____________O -1 32.00 -51.50 HU 65 26 57
1886 NA NA 15:00:00 TS 32.67 -50.45 1565 1511 _____________P -1 32.67 -50.45 HU 60 21 51
1886 NA NA 18:00:00 TS 33.30 -49.60 1511 1463 _____________O -1 33.30 -49.60 TS 55 19 51
1886 NA NA 21:00:00 TS 33.90 -48.65 1465 1420 _____________P -1 33.90 -48.65 TS 52 20 53
1886 NA NA 1886-10-15 00:00:00 TS 34.50 -47.70 1422 1386 _____________O -1 34.50 -47.70 TS 50 20 51
1886 NA NA 03:00:00 TS 35.15 -46.74 1389 1345 _____________P -1 35.15 -46.74 TS 47 20 50
1886 NA NA 06:00:00 TS 35.80 -45.80 1349 1330 _____________O -1 35.80 -45.80 TS 45 21 52
1886 NA NA 09:00:00 TS 36.41 -44.72 1334 1308 _____________P -1 36.41 -44.72 TS 42 19 50
1886 NA NA 12:00:00 ET 37.00 -44.00 1308 1252 _____________O -1 37.00 -44.00 EX 40 13 24
1886 NA NA 15:00:00 ET 37.60 -44.06 1247 1172 _____________P -1 37.60 -44.06 EX 40 13 342
1886 NA NA 18:00:00 ET 38.20 -44.50 1172 1098 _____________O -1 38.20 -44.50 EX 40 14 332
1886 NA NA 21:00:00 ET 38.80 -44.89 1098 1029 _____________P -1 38.80 -44.89 EX 35 13 336
1886 NA NA 1886-10-16 00:00:00 ET 39.40 -45.20 1029 _____________O -1 39.40 -45.20 EX 30 13 338